createdAt,value
2023-02-04T00:01:19.734Z,15.65
2023-02-04T00:03:48.267Z,12.52
2023-02-04T00:06:16.656Z,13.02
2023-02-04T00:08:45.040Z,16.65
2023-02-04T00:11:13.480Z,20.65
2023-02-04T00:13:41.906Z,19.00
2023-02-04T00:16:10.377Z,20.45
2023-02-04T00:18:38.906Z,12.75
2023-02-04T00:21:07.286Z,18.33
2023-02-04T00:23:35.726Z,11.48
2023-02-04T00:26:04.820Z,11.55
2023-02-04T00:28:33.228Z,8.95
2023-02-04T00:31:01.790Z,21.58
2023-02-04T00:33:30.263Z,12.55
2023-02-04T00:35:59.040Z,10.07
2023-02-04T00:38:27.504Z,9.68
2023-02-04T00:40:55.890Z,12.05
2023-02-04T00:43:24.319Z,8.05
2023-02-04T00:45:52.686Z,6.57
2023-02-04T00:48:21.197Z,7.53
2023-02-04T00:50:49.570Z,10.05
2023-02-04T00:53:17.937Z,8.90
2023-02-04T00:55:46.329Z,9.32
2023-02-04T00:58:14.821Z,11.05
2023-02-04T01:00:43.334Z,8.48
2023-02-04T01:03:12.310Z,11.60
2023-02-04T01:05:40.787Z,8.85
2023-02-04T01:08:09.192Z,9.70
2023-02-04T01:10:37.656Z,8.93
2023-02-04T01:13:08.266Z,10.73
2023-02-04T01:15:36.846Z,11.45
2023-02-04T01:18:05.339Z,11.60
2023-02-04T01:20:33.739Z,9.52
2023-02-04T01:23:02.290Z,13.73
2023-02-04T01:25:30.706Z,16.65
2023-02-04T01:27:59.118Z,14.60
2023-02-04T01:30:27.503Z,12.93
2023-02-04T01:32:56.020Z,13.48
2023-02-04T01:35:25.030Z,11.60
2023-02-04T01:37:53.439Z,20.55
2023-02-04T01:40:22.516Z,20.42
2023-02-04T01:42:51.638Z,21.98
2023-02-04T01:45:20.357Z,11.25
2023-02-04T01:47:48.917Z,12.18
2023-02-04T01:50:17.940Z,12.65
2023-02-04T01:52:46.972Z,11.27
2023-02-04T01:55:19.218Z,10.27
2023-02-04T02:00:30.729Z,10.85
2023-02-04T02:03:00.489Z,12.30
2023-02-04T02:05:41.643Z,12.10
2023-02-04T02:08:11.242Z,16.05
2023-02-04T02:10:42.977Z,10.60
2023-02-04T02:13:16.066Z,13.30
2023-02-04T02:15:44.702Z,18.50
2023-02-04T02:18:13.867Z,12.60
2023-02-04T02:20:44.121Z,12.13
2023-02-04T02:23:43.322Z,12.73
2023-02-04T02:26:12.266Z,11.18
2023-02-04T02:28:44.521Z,13.13
2023-02-04T02:33:41.963Z,16.30
2023-02-04T02:36:11.012Z,14.38
2023-02-04T02:38:39.909Z,10.77
2023-02-04T02:41:10.274Z,11.93
2023-02-04T02:43:39.610Z,12.32
2023-02-04T02:46:08.125Z,11.95
2023-02-04T02:48:36.664Z,9.52
2023-02-04T02:51:05.088Z,10.52
2023-02-04T02:53:33.592Z,9.05
2023-02-04T02:56:04.688Z,9.65
2023-02-04T02:58:36.371Z,10.95
2023-02-04T03:01:08.960Z,10.73
2023-02-04T03:03:41.524Z,10.98
2023-02-04T03:06:20.404Z,15.93
2023-02-04T03:08:51.477Z,13.40
2023-02-04T03:11:19.959Z,11.65
2023-02-04T03:13:49.999Z,10.70
2023-02-04T03:16:19.324Z,11.57
2023-02-04T03:18:48.729Z,11.55
2023-02-04T03:21:17.173Z,9.07
2023-02-04T03:23:45.629Z,11.93
2023-02-04T03:26:14.076Z,8.35
2023-02-04T03:28:43.013Z,12.30
2023-02-04T03:31:11.549Z,12.18
2023-02-04T03:33:40.272Z,14.77
2023-02-04T03:36:09.395Z,10.45
2023-02-04T03:38:37.920Z,10.68
2023-02-04T03:41:06.451Z,8.05
2023-02-04T03:43:34.821Z,9.25
2023-02-04T03:46:03.417Z,9.85
2023-02-04T03:48:31.862Z,8.68
2023-02-04T03:51:00.285Z,12.13
2023-02-04T03:53:28.854Z,10.98
2023-02-04T03:55:57.369Z,10.35
2023-02-04T03:58:25.820Z,11.70
2023-02-04T04:00:54.242Z,9.13
2023-02-04T04:03:22.648Z,12.32
2023-02-04T04:05:51.064Z,13.55
2023-02-04T04:08:19.543Z,11.05
2023-02-04T04:10:48.217Z,10.70
2023-02-04T04:13:16.700Z,11.85
2023-02-04T04:15:45.276Z,15.43
2023-02-04T04:18:13.728Z,13.95
2023-02-04T04:20:42.138Z,14.07
2023-02-04T04:23:10.625Z,17.05
2023-02-04T04:25:39.146Z,17.17
2023-02-04T04:28:07.707Z,18.60
2023-02-04T04:30:36.128Z,16.45
2023-02-04T04:33:04.610Z,16.90
2023-02-04T04:35:34.734Z,17.17
2023-02-04T04:38:03.851Z,20.40
2023-02-04T04:40:32.645Z,18.23
2023-02-04T04:43:01.408Z,24.98
2023-02-04T04:45:29.979Z,16.65
2023-02-04T04:47:58.386Z,18.60
2023-02-04T04:50:27.077Z,18.17
2023-02-04T04:52:55.708Z,21.90
2023-02-04T04:55:24.253Z,19.55
2023-02-04T04:57:53.805Z,23.55
2023-02-04T05:00:22.506Z,18.13
2023-02-04T05:02:50.904Z,21.02
2023-02-04T05:05:19.441Z,21.17
2023-02-04T05:07:47.959Z,16.83
2023-02-04T05:10:17.180Z,12.13
2023-02-04T05:12:45.657Z,14.45
2023-02-04T05:15:14.151Z,13.13
2023-02-04T05:17:42.637Z,13.80
2023-02-04T05:20:11.706Z,14.80
2023-02-04T05:22:40.150Z,16.00
2023-02-04T05:25:08.897Z,14.70
2023-02-04T05:27:37.328Z,18.75
2023-02-04T05:30:05.982Z,18.23
2023-02-04T05:32:34.602Z,18.08
2023-02-04T05:35:05.472Z,17.85
2023-02-04T05:37:34.164Z,14.35
2023-02-04T05:40:03.119Z,21.13
2023-02-04T05:42:31.948Z,18.02
2023-02-04T05:45:00.407Z,18.95
2023-02-04T05:47:28.865Z,24.27
2023-02-04T05:49:57.234Z,24.08
2023-02-04T05:52:25.615Z,26.27
2023-02-04T05:54:54.091Z,27.05
2023-02-04T05:57:22.601Z,25.58
2023-02-04T05:59:51.090Z,27.95
2023-02-04T06:02:20.058Z,22.60
2023-02-04T06:04:48.631Z,21.88
2023-02-04T06:07:17.117Z,24.75
2023-02-04T06:09:45.491Z,20.80
2023-02-04T06:12:14.200Z,18.55
2023-02-04T06:14:42.709Z,19.63
2023-02-04T06:17:11.194Z,17.48
2023-02-04T06:19:39.622Z,21.08
2023-02-04T06:22:08.055Z,21.45
2023-02-04T06:24:36.852Z,23.63
2023-02-04T06:27:05.313Z,21.80
2023-02-04T06:29:33.792Z,20.33
2023-02-04T06:32:02.475Z,20.13
2023-02-04T06:34:30.932Z,19.83
2023-02-04T06:36:59.483Z,16.15
2023-02-04T06:39:27.976Z,19.15
2023-02-04T06:41:56.498Z,16.75
2023-02-04T06:44:24.956Z,20.70
2023-02-04T06:46:53.452Z,17.02
2023-02-04T06:49:21.922Z,15.32
2023-02-04T06:51:50.761Z,20.95
2023-02-04T06:54:19.196Z,15.77
2023-02-04T06:56:48.217Z,22.05
2023-02-04T06:59:16.664Z,20.70
2023-02-04T07:01:45.177Z,22.48
2023-02-04T07:04:13.654Z,19.75
2023-02-04T07:06:42.018Z,23.10
2023-02-04T07:09:11.590Z,26.38
2023-02-04T07:11:40.052Z,35.20
2023-02-04T07:14:10.248Z,38.03
2023-02-04T07:16:38.709Z,35.40
2023-02-04T07:19:07.391Z,29.70
2023-02-04T07:21:35.806Z,28.67
2023-02-04T07:24:04.292Z,29.30
2023-02-04T07:26:34.225Z,22.02
2023-02-04T07:29:02.727Z,26.95
2023-02-04T07:31:31.338Z,22.00
2023-02-04T07:33:59.983Z,28.20
2023-02-04T07:36:28.521Z,30.13
2023-02-04T07:38:56.930Z,33.17
2023-02-04T07:41:25.753Z,24.98
2023-02-04T07:43:54.194Z,26.58
2023-02-04T07:46:22.717Z,20.35
2023-02-04T07:48:51.125Z,20.33
2023-02-04T07:51:19.527Z,23.27
2023-02-04T07:53:48.098Z,17.38
2023-02-04T07:56:16.498Z,22.50
2023-02-04T07:58:44.889Z,22.45
2023-02-04T08:01:13.869Z,20.42
2023-02-04T08:03:42.740Z,19.05
2023-02-04T08:06:11.470Z,20.33
2023-02-04T08:08:39.909Z,20.58
2023-02-04T08:11:08.421Z,25.55
2023-02-04T08:13:36.880Z,16.30
2023-02-04T08:16:05.602Z,20.13
2023-02-04T08:18:34.128Z,18.65
2023-02-04T08:21:04.708Z,21.45
2023-02-04T08:23:33.474Z,20.00
2023-02-04T08:26:01.887Z,22.55
2023-02-04T08:28:30.270Z,20.50
2023-02-04T08:30:58.826Z,23.15
2023-02-04T08:33:27.376Z,29.95
2023-02-04T08:35:55.935Z,29.23
2023-02-04T08:38:24.633Z,28.75
2023-02-04T08:40:53.230Z,33.00
2023-02-04T08:43:21.820Z,23.42
2023-02-04T08:45:50.202Z,23.75
2023-02-04T08:48:18.793Z,24.75
2023-02-04T08:50:47.267Z,29.73
2023-02-04T08:53:15.797Z,24.83
2023-02-04T08:55:44.343Z,23.15
2023-02-04T08:58:12.819Z,20.50
2023-02-04T09:00:41.297Z,24.52
2023-02-04T09:03:09.846Z,17.08
2023-02-04T09:05:38.330Z,22.38
2023-02-04T09:08:06.846Z,21.92
2023-02-04T09:10:35.431Z,24.58
2023-02-04T09:13:03.922Z,21.60
2023-02-04T09:15:32.346Z,28.58
2023-02-04T09:18:14.940Z,25.95
2023-02-04T09:20:44.810Z,30.38
2023-02-04T09:23:13.525Z,27.63
2023-02-04T09:25:43.680Z,27.52
2023-02-04T09:28:14.058Z,30.33
2023-02-04T09:30:44.336Z,22.63
2023-02-04T09:33:14.395Z,22.83
2023-02-04T09:35:42.873Z,27.48
2023-02-04T09:38:11.420Z,35.13
2023-02-04T09:40:49.903Z,22.58
2023-02-04T09:43:25.084Z,25.23
2023-02-04T09:45:54.586Z,25.58
2023-02-04T09:48:24.282Z,28.35
2023-02-04T09:51:00.172Z,26.20
2023-02-04T09:53:30.183Z,24.90
2023-02-04T09:55:58.943Z,22.23
2023-02-04T09:58:33.239Z,20.33
2023-02-04T10:01:13.777Z,25.63
2023-02-04T10:03:47.858Z,24.58
2023-02-04T10:06:19.275Z,21.35
2023-02-04T10:08:50.023Z,24.30
2023-02-04T10:11:20.490Z,23.35
2023-02-04T10:13:51.622Z,18.60
2023-02-04T10:16:42.132Z,21.48
2023-02-04T10:19:15.252Z,19.80
2023-02-04T10:21:46.000Z,17.60
2023-02-04T10:24:17.293Z,20.27
2023-02-04T10:26:46.251Z,18.47
2023-02-04T10:29:18.675Z,14.77
2023-02-04T10:31:51.779Z,16.65
2023-02-04T10:34:23.537Z,20.95
2023-02-04T10:36:57.786Z,14.18
2023-02-04T10:39:28.737Z,13.77
2023-02-04T10:41:59.590Z,18.55
2023-02-04T10:44:31.342Z,18.27
2023-02-04T10:47:15.246Z,16.38
2023-02-04T10:49:54.153Z,16.90
2023-02-04T10:52:30.374Z,18.48
2023-02-04T10:54:58.986Z,22.35
2023-02-04T10:57:29.938Z,20.35
2023-02-04T11:00:01.475Z,16.25
2023-02-04T11:03:03.744Z,18.83
2023-02-04T11:05:34.758Z,14.65
2023-02-04T11:08:19.416Z,19.98
2023-02-04T11:10:51.459Z,13.98
2023-02-04T11:13:41.138Z,12.65
2023-02-04T11:16:17.735Z,20.25
2023-02-04T11:18:55.701Z,16.45
2023-02-04T11:21:45.913Z,15.10
2023-02-04T11:24:14.335Z,13.57
2023-02-04T11:26:45.007Z,16.38
2023-02-04T11:29:16.393Z,16.77
2023-02-04T11:31:48.061Z,17.13
2023-02-04T11:34:16.602Z,18.00
2023-02-04T11:37:13.981Z,14.63
2023-02-04T11:39:45.296Z,15.00
2023-02-04T11:42:21.625Z,11.13
2023-02-04T11:44:52.475Z,12.93
2023-02-04T11:47:24.679Z,12.30
2023-02-04T11:52:23.083Z,10.20
2023-02-04T11:54:56.468Z,9.52
2023-02-04T11:57:26.003Z,15.07
2023-02-04T11:59:55.339Z,16.30
2023-02-04T12:02:28.215Z,16.40
2023-02-04T12:05:08.684Z,16.70
2023-02-04T12:07:37.065Z,20.90
2023-02-04T12:10:33.644Z,16.75
2023-02-04T12:13:13.118Z,15.40
2023-02-04T12:15:41.600Z,13.45
2023-02-04T12:18:16.587Z,12.10
2023-02-04T12:20:45.158Z,13.88
2023-02-04T12:23:13.514Z,14.73
2023-02-04T12:25:41.932Z,14.10
2023-02-04T12:28:10.404Z,13.25
2023-02-04T12:30:38.950Z,11.05
2023-02-04T12:33:07.553Z,12.85
2023-02-04T12:35:36.422Z,15.95
2023-02-04T12:38:05.533Z,12.65
2023-02-04T12:40:33.998Z,14.82
2023-02-04T12:43:02.527Z,13.05
2023-02-04T12:45:31.233Z,15.55
2023-02-04T12:48:00.144Z,13.02
2023-02-04T12:50:28.749Z,16.13
2023-02-04T12:52:59.467Z,12.40
2023-02-04T12:55:29.218Z,15.18
2023-02-04T12:57:57.739Z,11.00
2023-02-04T13:00:27.483Z,11.88
2023-02-04T13:02:58.997Z,13.57
2023-02-04T13:05:27.908Z,8.82
2023-02-04T13:07:56.450Z,11.55
2023-02-04T13:10:24.991Z,11.70
2023-02-04T13:12:53.436Z,19.00
2023-02-04T13:15:21.917Z,12.55
2023-02-04T13:17:50.787Z,11.05
2023-02-04T13:20:19.864Z,11.50
2023-02-04T13:22:48.506Z,10.40
2023-02-04T13:25:17.132Z,19.20
2023-02-04T13:27:45.606Z,12.57
2023-02-04T13:30:14.943Z,8.50
2023-02-04T13:32:43.518Z,12.77
2023-02-04T13:35:12.003Z,10.80
2023-02-04T13:37:40.442Z,13.15
2023-02-04T13:40:10.819Z,10.10
2023-02-04T13:42:39.303Z,8.68
2023-02-04T13:45:12.306Z,10.23
2023-02-04T13:47:40.812Z,12.60
2023-02-04T13:50:10.153Z,12.13
2023-02-04T13:52:38.678Z,11.68
2023-02-04T13:55:07.260Z,11.50
2023-02-04T13:57:37.338Z,10.55
2023-02-04T14:00:07.105Z,12.65
2023-02-04T14:02:35.528Z,9.32
2023-02-04T14:05:04.232Z,12.65
2023-02-04T14:07:34.251Z,12.95
2023-02-04T14:10:02.713Z,10.13
2023-02-04T14:12:31.277Z,10.05
2023-02-04T14:14:59.751Z,10.27
2023-02-04T14:17:34.438Z,14.02
2023-02-04T14:20:07.166Z,12.10
2023-02-04T14:22:35.628Z,11.95
2023-02-04T14:25:04.317Z,12.88
2023-02-04T14:27:35.350Z,11.00
2023-02-04T14:30:05.688Z,14.20
2023-02-04T14:32:34.112Z,15.18
2023-02-04T14:35:02.571Z,11.13
2023-02-04T14:37:30.997Z,13.65
2023-02-04T14:39:59.382Z,13.07
2023-02-04T14:42:27.871Z,12.43
2023-02-04T14:44:57.012Z,13.57
2023-02-04T14:47:25.710Z,13.75
2023-02-04T14:49:54.263Z,12.02
2023-02-04T14:52:22.838Z,16.45
2023-02-04T14:54:51.272Z,9.90
2023-02-04T14:57:19.815Z,8.68
2023-02-04T14:59:48.399Z,8.60
2023-02-04T15:02:16.916Z,12.68
2023-02-04T15:04:45.547Z,10.27
2023-02-04T15:07:14.027Z,12.02
2023-02-04T15:09:44.592Z,11.98
2023-02-04T15:12:13.074Z,12.15
2023-02-04T15:14:41.530Z,12.13
2023-02-04T15:17:10.009Z,11.15
2023-02-04T15:19:38.418Z,15.80
2023-02-04T15:22:06.935Z,12.30
2023-02-04T15:24:35.411Z,11.75
2023-02-04T15:27:04.025Z,10.55
2023-02-04T15:29:32.926Z,11.60
2023-02-04T15:32:01.643Z,13.23
2023-02-04T15:34:30.146Z,11.25
2023-02-04T15:36:58.552Z,13.77
2023-02-04T15:39:27.659Z,16.60
2023-02-04T15:41:56.174Z,10.50
2023-02-04T15:44:26.615Z,10.35
2023-02-04T15:46:55.162Z,14.18
2023-02-04T15:49:23.630Z,14.88
2023-02-04T15:51:52.096Z,13.88
2023-02-04T15:54:20.538Z,11.75
2023-02-04T15:56:49.079Z,11.65
2023-02-04T15:59:17.539Z,13.75
2023-02-04T16:01:46.091Z,9.55
2023-02-04T16:04:14.614Z,7.90
2023-02-04T16:06:50.155Z,9.07
2023-02-04T16:09:22.065Z,9.48
2023-02-04T16:11:50.554Z,10.75
2023-02-04T16:14:18.981Z,10.32
2023-02-04T16:16:47.523Z,11.05
2023-02-04T16:19:16.046Z,13.15
2023-02-04T16:21:44.491Z,9.57
2023-02-04T16:24:12.897Z,11.77
2023-02-04T16:26:41.412Z,11.20
2023-02-04T16:29:09.840Z,12.35
2023-02-04T16:31:38.533Z,13.60
2023-02-04T16:34:07.048Z,12.02
2023-02-04T16:36:35.526Z,11.25
2023-02-04T16:39:04.054Z,13.60
2023-02-04T16:41:32.621Z,15.35
2023-02-04T16:44:01.063Z,14.85
2023-02-04T16:46:31.869Z,17.65
2023-02-04T16:49:00.908Z,14.75
2023-02-04T16:51:29.361Z,19.75
2023-02-04T16:53:57.830Z,13.45
2023-02-04T16:56:33.951Z,14.30
2023-02-04T16:59:03.228Z,15.85
2023-02-04T17:01:31.870Z,17.70
2023-02-04T17:04:00.389Z,15.60
2023-02-04T17:06:30.334Z,14.43
2023-02-04T17:08:59.649Z,32.30
2023-02-04T17:11:34.004Z,19.95
2023-02-04T17:14:06.190Z,16.58
2023-02-04T17:19:04.600Z,19.75
2023-02-04T17:21:33.067Z,18.27
2023-02-04T17:24:04.348Z,18.05
2023-02-04T17:26:37.411Z,15.48
2023-02-04T17:29:10.589Z,22.23
2023-02-04T17:31:39.909Z,17.70
2023-02-04T17:34:08.946Z,15.73
2023-02-04T17:36:37.716Z,15.68
2023-02-04T17:39:07.567Z,16.15
2023-02-04T17:41:36.130Z,17.77
2023-02-04T17:44:04.862Z,14.40
2023-02-04T17:46:34.311Z,14.25
2023-02-04T17:49:02.959Z,18.70
2023-02-04T17:51:31.780Z,14.45
2023-02-04T17:54:00.625Z,16.55
2023-02-04T17:56:29.220Z,16.17
2023-02-04T17:58:57.868Z,16.17
2023-02-04T18:01:26.563Z,14.48
2023-02-04T18:03:55.256Z,18.65
2023-02-04T18:06:28.444Z,17.92
2023-02-04T18:09:02.103Z,16.40
2023-02-04T18:11:37.713Z,14.90
2023-02-04T18:14:20.515Z,17.77
2023-02-04T18:16:49.050Z,13.82
2023-02-04T18:19:35.092Z,14.73
2023-02-04T18:22:11.652Z,17.35
2023-02-04T18:24:44.357Z,13.85
2023-02-04T18:27:31.113Z,14.98
2023-02-04T18:30:01.650Z,17.85
2023-02-04T18:32:40.701Z,17.95
2023-02-04T18:35:37.819Z,15.90
2023-02-04T18:38:24.581Z,14.65
2023-02-04T18:41:18.349Z,27.42
2023-02-04T18:44:02.078Z,16.35
2023-02-04T18:46:37.082Z,20.67
2023-02-04T18:49:16.330Z,19.65
2023-02-04T18:51:45.678Z,18.48
2023-02-04T18:54:26.188Z,22.00
2023-02-04T18:57:13.954Z,18.33
2023-02-04T18:59:42.481Z,20.90
2023-02-04T19:02:35.450Z,18.95
2023-02-04T19:05:19.347Z,17.92
2023-02-04T19:07:47.814Z,16.45
2023-02-04T19:10:32.079Z,23.15
2023-02-04T19:13:20.909Z,20.45
2023-02-04T19:16:18.159Z,23.90
2023-02-04T19:18:47.198Z,17.33
2023-02-04T19:21:25.122Z,32.83
2023-02-04T19:24:20.751Z,18.02
2023-02-04T19:27:00.157Z,17.70
2023-02-04T19:29:42.115Z,18.15
2023-02-04T19:32:22.829Z,19.38
2023-02-04T19:34:53.391Z,22.30
2023-02-04T19:37:27.780Z,23.08
2023-02-04T19:39:56.279Z,20.63
2023-02-04T19:42:36.164Z,21.80
2023-02-04T19:45:24.096Z,23.35
2023-02-04T19:47:56.994Z,23.20
2023-02-04T19:50:32.632Z,20.15
2023-02-04T19:53:20.013Z,17.10
2023-02-04T19:55:52.478Z,19.52
2023-02-04T19:58:22.347Z,23.25
2023-02-04T20:01:05.571Z,25.05
2023-02-04T20:03:46.194Z,18.23
2023-02-04T20:06:25.858Z,20.27
2023-02-04T20:09:01.605Z,19.25
2023-02-04T20:11:29.983Z,20.33
2023-02-04T20:14:18.251Z,25.00
2023-02-04T20:16:46.735Z,16.15
2023-02-04T20:19:26.928Z,19.95
2023-02-04T20:22:01.442Z,20.48
2023-02-04T20:24:36.553Z,21.17
2023-02-04T20:27:29.369Z,22.73
2023-02-04T20:30:23.345Z,15.90
2023-02-04T20:32:55.382Z,23.52
2023-02-04T20:35:23.716Z,21.73
2023-02-04T20:37:59.250Z,19.00
2023-02-04T20:40:35.918Z,24.35
2023-02-04T20:43:15.936Z,20.83
2023-02-04T20:45:54.920Z,21.48
2023-02-04T20:48:32.714Z,21.50
2023-02-04T20:51:03.819Z,23.95
2023-02-04T20:53:45.213Z,21.63
2023-02-04T20:56:23.484Z,22.23
2023-02-04T20:58:57.590Z,21.92
2023-02-04T21:01:34.119Z,24.27
2023-02-04T21:04:18.039Z,27.10
2023-02-04T21:06:46.891Z,22.08
2023-02-04T21:09:24.021Z,24.35
2023-02-04T21:11:54.973Z,23.13
2023-02-04T21:14:24.064Z,23.27
2023-02-04T21:16:53.898Z,29.23
2023-02-04T21:19:24.569Z,24.38
2023-02-04T21:21:53.197Z,27.23
2023-02-04T21:24:21.865Z,22.17
2023-02-04T21:26:50.338Z,39.08
2023-02-04T21:29:18.882Z,24.55
2023-02-04T21:31:47.293Z,23.33
2023-02-04T21:34:16.677Z,21.67
2023-02-04T21:36:45.170Z,20.63
2023-02-04T21:39:13.690Z,21.67
2023-02-04T21:41:42.117Z,19.23
2023-02-04T21:44:10.621Z,24.00
2023-02-04T21:46:39.096Z,20.77
2023-02-04T21:49:07.614Z,19.73
2023-02-04T21:51:35.999Z,21.35
2023-02-04T21:54:05.218Z,20.80
2023-02-04T21:56:33.676Z,20.48
2023-02-04T21:59:02.150Z,21.20
2023-02-04T22:01:30.660Z,19.05
2023-02-04T22:03:59.112Z,21.75
2023-02-04T22:06:27.672Z,18.35
2023-02-04T22:08:56.098Z,22.55
2023-02-04T22:11:24.463Z,18.13
2023-02-04T22:14:11.390Z,20.23
2023-02-04T22:16:39.753Z,18.38
2023-02-04T22:19:08.107Z,20.90
2023-02-04T22:21:37.271Z,22.38
2023-02-04T22:24:05.749Z,18.25
2023-02-04T22:26:34.372Z,49.28
2023-02-04T22:29:02.864Z,22.65
2023-02-04T22:31:31.251Z,113.82
2023-02-04T22:33:59.734Z,39.78
2023-02-04T22:36:28.300Z,32.55
2023-02-04T22:38:56.706Z,28.25
2023-02-04T22:41:25.125Z,23.30
2023-02-04T22:43:53.553Z,22.63
2023-02-04T22:46:22.295Z,25.05
2023-02-04T22:48:50.790Z,22.52
2023-02-04T22:51:19.139Z,23.90
2023-02-04T22:53:47.722Z,22.95
2023-02-04T22:56:16.228Z,25.08
2023-02-04T22:58:44.694Z,22.85
2023-02-04T23:01:13.617Z,23.00
2023-02-04T23:03:41.999Z,21.23
2023-02-04T23:06:10.615Z,26.98
2023-02-04T23:08:39.064Z,26.85
2023-02-04T23:11:09.366Z,29.63
2023-02-04T23:13:38.374Z,24.70
2023-02-04T23:16:07.212Z,24.65
2023-02-04T23:18:35.696Z,27.55
2023-02-04T23:21:05.424Z,27.20
2023-02-04T23:23:33.972Z,25.38
2023-02-04T23:26:03.317Z,25.42
2023-02-04T23:28:32.000Z,25.45
2023-02-04T23:31:00.503Z,24.50
2023-02-04T23:33:29.176Z,26.20
2023-02-04T23:35:57.690Z,28.08
2023-02-04T23:38:26.294Z,30.17
2023-02-04T23:40:57.035Z,29.45
2023-02-04T23:43:26.767Z,26.17
2023-02-04T23:45:57.186Z,27.63
2023-02-04T23:48:26.050Z,31.08
2023-02-04T23:50:56.991Z,33.17
2023-02-04T23:53:25.539Z,29.73
2023-02-04T23:55:54.002Z,25.52
2023-02-04T23:58:22.421Z,29.35
